Hakon Mosby — LJIT — position and weather

sailwx.info

Track history (hours):
 
Tides and Currents Weather Stations Pressure Air Temp Water Temp Dewpoint Dewpoint Depression Visibility Wind Speed Wind Dir Waves Ship Positions

Oceanographic research ship Hakon Mosby (Norway)

Detailed information on ship capabilities available from University of Delaware's Ocean Information Center and ARCUS's ALIAS (Arctic Logistics Information and Support) project.

Last reported at 2015-Aug-30 22:00 UTC. Time now 2015-Aug-31 00:32 UTC.
Position N 78°18' E 014°48'.

Type: Dredging. MMSI: 258244000.

Wind from 090 at 25 knots

Barometer 1007.6 mb
Air temperature 1.1 ° C
Dewpoint -0.3 ° C
Water temperature 4.6 ° C

Date/timePositionNaut miles runAvg speedWind from/ knotsBaromVisibWave heightAir tempDewpointWater temp
2015-Aug-30 22:00N 78°18' E 014°48'6 6.0 090 / 251007.6 1.1-0.3 4.6
2015-Aug-30 21:00N 78°24' E 014°48'0 0.0 110 / 191008.1 1.3-0.1 5.3
2015-Aug-30 20:00N 78°24' E 014°48'6 6.1 120 / 171008.7 1.5 0.1 5.4
2015-Aug-30 19:00N 78°30' E 014°54'1 1.2 130 / 171008.8 1.5-0.0 5.4
2015-Aug-30 18:00N 78°30' E 015°00'2 2.4 150 / 171008.7 1.3-0.4 5.4
2015-Aug-30 17:00N 78°30' E 015°12'6 6.5 130 / 61008.7 3.1 0.5 5.6
2015-Aug-30 16:00N 78°24' E 015°24'2 2.4 120 / 251008.6 1.5-0.5 5.4
2015-Aug-30 15:00N 78°24' E 015°36'0 0.0 120 / 271009.1 1.3-0.4 5.3
2015-Aug-30 14:00N 78°24' E 015°36'6 1.2 110 / 271009.2 1.6-0.9 5.3
2015-Aug-30 09:00N 78°24' E 016°06'2 1.2 140 / 171010.2 2.7-0.7 5.6
2015-Aug-30 07:00N 78°24' E 015°54'45 1.6 050 / 121010.2 3.9-1.5 5.9
2015-Aug-29 02:00N 78°06' E 012°30'9 8.7 060 / 81011.0 3.2-0.3 3.1
2015-Aug-29 01:00N 78°06' E 011°48'10 9.5 080 / 81011.3 3.2-0.5 4.6
2015-Aug-29 00:00N 78°12' E 011°12'1312.9 210 / 21012.1 2.7-0.5 3.1
2015-Aug-28 23:00N 78°24' E 010°48'7 7.0 220 / 121012.5 2.6-0.3 2.9
2015-Aug-28 22:00N 78°30' E 010°30'48 9.6 340 / 61013.0 3.2-0.6 3.4
2015-Aug-28 17:00N 79°18' E 010°24'1212.0 330 1015.5 2.7-1.7 5.1
2015-Aug-28 16:00N 79°30' E 010°24'18 6.0 040 / 41016.1 2.5-2.2 5.4
2015-Aug-28 13:00N 79°48' E 010°24'4 4.3 060 / 101018.3 0.7-3.2 5.3
2015-Aug-28 12:00N 79°48' E 010°00'1514.7 040 / 81018.5 0.3-3.5 6.5
2015-Aug-28 11:00N 80°00' E 009°12'9 9.4 050 / 61019.0 -1.0-3.5 1.8
2015-Aug-28 10:00N 80°06' E 008°30'0 0.0 020 / 41019.1 -0.5-4.1 2.7
2015-Aug-28 07:00N 80°06' E 008°30'4 4.1 320 / 81019.7 -1.5-4.4 2.7
2015-Aug-28 06:00N 80°06' E 008°06'2 1.0 320 / 81019.8 -1.5-4.6 4.3
2015-Aug-28 04:00N 80°06' E 008°18'3 3.1 350 / 101019.7 -2.0-4.6 2.6
2015-Aug-28 03:00N 80°06' E 008°36'15 5.1 340 / 121019.7 -2.2-4.8 2.5
2015-Aug-28 00:00N 79°54' E 009°30'9 4.4 280 / 101019.6 0.4-3.5 6.3
2015-Aug-27 22:00N 79°48' E 010°06'5 2.7 270 / 101019.5 0.6-2.3 6.6
2015-Aug-27 20:00N 79°48' E 010°36'0 0.0 280 / 141019.6 0.8-2.4 5.6
2015-Aug-27 18:00N 79°48' E 010°36'1 1.1 270 / 141019.6 0.4-1.6 5.6
2015-Aug-27 17:00N 79°48' E 010°30'2110.3 270 / 121019.7 0.8-2.2 5.4
2015-Aug-27 15:00N 80°00' E 008°54'7 7.3 280 / 141019.8 -0.0-2.4 2.4
2015-Aug-27 14:00N 80°06' E 008°30'4 4.1 280 / 101020.0 -0.6-3.6 2.3
2015-Aug-27 13:00N 80°06' E 008°06'2 2.1 280 / 121019.7 -0.7-3.3 4.0
2015-Aug-27 12:00N 80°06' E 008°18'2 0.5 290 / 81019.7 -0.5-3.7 2.4
2015-Aug-27 08:00N 80°06' E 008°06'7 2.4 330 / 101019.2 -0.7-2.9 2.0
2015-Aug-27 05:00N 80°00' E 008°30'7 6.8 300 / 81018.8 -0.2-2.6 6.3
2015-Aug-27 04:00N 79°54' E 008°48'19 9.7 300 / 81018.7 0.2-2.2 6.4
2015-Aug-27 02:00N 79°36' E 009°30'7 6.8 320 / 81018.7 1.3-0.8 7.0
2015-Aug-27 01:00N 79°30' E 009°48'7 6.8 320 / 101018.7 1.5-0.6 5.1
2015-Aug-27 00:00N 79°24' E 010°06'6 6.4 330 / 101018.5 2.5 0.7 5.8
2015-Aug-26 23:00N 79°18' E 010°18'7 6.9 330 / 121018.5 2.5 1.0 5.6
2015-Aug-26 22:00N 79°12' E 010°36'1212.5 330 / 121018.2 3.1 1.6 4.9
2015-Aug-26 21:00N 79°00' E 010°54'6 0.9 340 / 141018.2 3.2 1.7 5.1
2015-Aug-26 14:00N 78°54' E 011°06'1212.0 070 / 21017.7 3.7 2.9 3.9
2015-Aug-26 13:00N 78°48' E 010°12'18 9.2 100 / 81017.8 3.7 2.9 3.5
2015-Aug-26 11:00N 78°30' E 010°30'1313.4 310 / 21018.0 3.8 3.0 3.6
2015-Aug-26 10:00N 78°18' E 011°00'9 9.5 310 / 61018.0 4.1 3.1 5.4
2015-Aug-26 09:00N 78°12' E 011°36'1211.5 260 / 101018.1 4.4 3.6 4.4
2015-Aug-26 08:00N 78°06' E 012°24'1111.1 140 / 41018.2 3.6 2.7 3.5
2015-Aug-26 07:00N 78°06' E 013°18'10 4.9 270 / 21018.5 3.5 2.7 3.5
2015-Aug-26 05:00N 78°06' E 014°06'0 0.0 270 / 141018.7 2.7 2.0 5.4
2015-Aug-26 04:00N 78°06' E 014°06'0 0.0 260 / 121018.7 3.2 2.5 5.4
2015-Aug-26 03:00N 78°06' E 014°06'6 2.1 220 / 41019.2 4.0 3.3 5.1
2015-Aug-26 00:00N 78°06' E 013°36'2 1.2 260 / 101019.3 3.2 2.4 2.8
2015-Aug-25 22:00N 78°06' E 013°24'4 3.7 320 / 101019.6 5.3 3.9 4.8
2015-Aug-25 21:00N 78°06' E 013°06'4 3.7 320 / 101019.7 5.5 4.1 5.9
2015-Aug-25 20:00N 78°06' E 012°48'2 1.2 330 / 81019.8 5.5 4.2 5.5
2015-Aug-25 18:00N 78°06' E 013°00'6 6.1 340 / 81019.7 5.5 3.7 2.9
2015-Aug-25 17:00N 78°00' E 013°06'6 6.0 350 / 81019.8 5.0 3.4 3.0
2015-Aug-25 16:00N 77°54' E 013°06'6 6.1 020 / 101020.0 4.5 3.2 3.1
2015-Aug-25 15:00N 77°48' E 013°12'1212.1 030 / 101019.8 4.3 3.3 2.7
2015-Aug-25 14:00N 77°36' E 013°18'6 6.1 040 / 101019.7 4.3 3.4 2.9
2015-Aug-25 13:00N 77°30' E 013°24'1212.3 090 / 61019.6 3.9 3.3 4.3
2015-Aug-25 12:00N 77°18' E 013°36'1212.3 130 / 41019.5 3.4 2.8 2.4
2015-Aug-25 11:00N 77°06' E 013°48'7 6.6 120 / 81019.0 3.1 2.5 2.3
2015-Aug-25 10:00N 77°00' E 014°00'6 6.0 150 / 81019.0 3.6 3.0 2.6
2015-Aug-25 09:00N 76°54' E 014°00'8 8.2 140 / 61018.8 3.6 3.0 2.5
2015-Aug-25 08:00N 76°54' E 014°36'4 2.0 130 / 41018.8 3.2 2.7 2.3
2015-Aug-25 06:00N 76°54' E 014°54'11 5.6 210 / 41018.8 3.2 2.7 2.5
2015-Aug-25 04:00N 77°00' E 014°12'1312.7 200 / 61019.0 3.4 2.8 2.5
2015-Aug-25 03:00N 77°12' E 013°54'13 6.6 200 / 61019.2 3.6 3.0 2.3
2015-Aug-25 01:00N 77°24' E 013°30'6 6.1 230 / 101019.1 4.0 3.5 4.0
2015-Aug-25 00:00N 77°30' E 013°24'6 6.1 220 / 61019.2 3.8 3.3 2.5
2015-Aug-24 23:00N 77°36' E 013°18'6 6.1 200 / 61019.2 3.7 3.1 2.5
2015-Aug-24 22:00N 77°42' E 013°12'6 6.1 200 / 61019.2 3.5-21.2 3.0
2015-Aug-24 21:00N 77°48' E 013°06'1212.0 200 / 81019.1 3.4 2.9 2.7
2015-Aug-24 20:00N 78°00' E 013°06'5 5.0 210 / 81019.0 3.5 2.7 2.9
2015-Aug-24 19:00N 78°00' E 013°30'1 1.2 220 / 101018.8 3.4 2.6 3.1
2015-Aug-24 18:00N 78°00' E 013°36'17 5.7 230 / 101018.7 3.9 3.1 3.1
2015-Aug-24 15:00N 78°12' E 014°36'   280 / 171017.6 5.5 4.6 5.4
2015-Aug-20 22:00N 78°24' E 014°48'   310 / 141019.7 5.5 1.5 5.8
Track history (hours):
 
Tides and Currents Weather Stations Pressure Air Temp Water Temp Dewpoint Dewpoint Depression Visibility Wind Speed Wind Dir Waves Ship Positions

Oceanographic research ship Hakon Mosby (Norway)

Detailed information on ship capabilities available from University of Delaware's Ocean Information Center and ARCUS's ALIAS (Arctic Logistics Information and Support) project.

Last reported at 2015-Aug-30 22:00 UTC. Time now 2015-Aug-31 00:32 UTC.
Position N 78°18' E 014°48'.

Type: Dredging. MMSI: 258244000.

Wind from 090 at 25 knots

Barometer 1007.6 mb
Air temperature 1.1 ° C
Dewpoint -0.3 ° C
Water temperature 4.6 ° C

Date/timePositionNaut miles runAvg speedWind from/ knotsBaromVisibWave heightAir tempDewpointWater temp
2015-Aug-30 22:00N 78°18' E 014°48'6 6.0 090 / 251007.6 1.1-0.3 4.6
2015-Aug-30 21:00N 78°24' E 014°48'0 0.0 110 / 191008.1 1.3-0.1 5.3
2015-Aug-30 20:00N 78°24' E 014°48'6 6.1 120 / 171008.7 1.5 0.1 5.4
2015-Aug-30 19:00N 78°30' E 014°54'1 1.2 130 / 171008.8 1.5-0.0 5.4
2015-Aug-30 18:00N 78°30' E 015°00'2 2.4 150 / 171008.7 1.3-0.4 5.4
2015-Aug-30 17:00N 78°30' E 015°12'6 6.5 130 / 61008.7 3.1 0.5 5.6
2015-Aug-30 16:00N 78°24' E 015°24'2 2.4 120 / 251008.6 1.5-0.5 5.4
2015-Aug-30 15:00N 78°24' E 015°36'0 0.0 120 / 271009.1 1.3-0.4 5.3
2015-Aug-30 14:00N 78°24' E 015°36'6 1.2 110 / 271009.2 1.6-0.9 5.3
2015-Aug-30 09:00N 78°24' E 016°06'2 1.2 140 / 171010.2 2.7-0.7 5.6
2015-Aug-30 07:00N 78°24' E 015°54'45 1.6 050 / 121010.2 3.9-1.5 5.9
2015-Aug-29 02:00N 78°06' E 012°30'9 8.7 060 / 81011.0 3.2-0.3 3.1
2015-Aug-29 01:00N 78°06' E 011°48'10 9.5 080 / 81011.3 3.2-0.5 4.6
2015-Aug-29 00:00N 78°12' E 011°12'1312.9 210 / 21012.1 2.7-0.5 3.1
2015-Aug-28 23:00N 78°24' E 010°48'7 7.0 220 / 121012.5 2.6-0.3 2.9
2015-Aug-28 22:00N 78°30' E 010°30'48 9.6 340 / 61013.0 3.2-0.6 3.4
2015-Aug-28 17:00N 79°18' E 010°24'1212.0 330 1015.5 2.7-1.7 5.1
2015-Aug-28 16:00N 79°30' E 010°24'18 6.0 040 / 41016.1 2.5-2.2 5.4
2015-Aug-28 13:00N 79°48' E 010°24'4 4.3 060 / 101018.3 0.7-3.2 5.3
2015-Aug-28 12:00N 79°48' E 010°00'1514.7 040 / 81018.5 0.3-3.5 6.5
2015-Aug-28 11:00N 80°00' E 009°12'9 9.4 050 / 61019.0 -1.0-3.5 1.8
2015-Aug-28 10:00N 80°06' E 008°30'0 0.0 020 / 41019.1 -0.5-4.1 2.7
2015-Aug-28 07:00N 80°06' E 008°30'4 4.1 320 / 81019.7 -1.5-4.4 2.7
2015-Aug-28 06:00N 80°06' E 008°06'2 1.0 320 / 81019.8 -1.5-4.6 4.3
2015-Aug-28 04:00N 80°06' E 008°18'3 3.1 350 / 101019.7 -2.0-4.6 2.6
2015-Aug-28 03:00N 80°06' E 008°36'15 5.1 340 / 121019.7 -2.2-4.8 2.5
2015-Aug-28 00:00N 79°54' E 009°30'9 4.4 280 / 101019.6 0.4-3.5 6.3
2015-Aug-27 22:00N 79°48' E 010°06'5 2.7 270 / 101019.5 0.6-2.3 6.6
2015-Aug-27 20:00N 79°48' E 010°36'0 0.0 280 / 141019.6 0.8-2.4 5.6
2015-Aug-27 18:00N 79°48' E 010°36'1 1.1 270 / 141019.6 0.4-1.6 5.6
2015-Aug-27 17:00N 79°48' E 010°30'2110.3 270 / 121019.7 0.8-2.2 5.4
2015-Aug-27 15:00N 80°00' E 008°54'7 7.3 280 / 141019.8 -0.0-2.4 2.4
2015-Aug-27 14:00N 80°06' E 008°30'4 4.1 280 / 101020.0 -0.6-3.6 2.3
2015-Aug-27 13:00N 80°06' E 008°06'2 2.1 280 / 121019.7 -0.7-3.3 4.0
2015-Aug-27 12:00N 80°06' E 008°18'2 0.5 290 / 81019.7 -0.5-3.7 2.4
2015-Aug-27 08:00N 80°06' E 008°06'7 2.4 330 / 101019.2 -0.7-2.9 2.0
2015-Aug-27 05:00N 80°00' E 008°30'7 6.8 300 / 81018.8 -0.2-2.6 6.3
2015-Aug-27 04:00N 79°54' E 008°48'19 9.7 300 / 81018.7 0.2-2.2 6.4
2015-Aug-27 02:00N 79°36' E 009°30'7 6.8 320 / 81018.7 1.3-0.8 7.0
2015-Aug-27 01:00N 79°30' E 009°48'7 6.8 320 / 101018.7 1.5-0.6 5.1
2015-Aug-27 00:00N 79°24' E 010°06'6 6.4 330 / 101018.5 2.5 0.7 5.8
2015-Aug-26 23:00N 79°18' E 010°18'7 6.9 330 / 121018.5 2.5 1.0 5.6
2015-Aug-26 22:00N 79°12' E 010°36'1212.5 330 / 121018.2 3.1 1.6 4.9
2015-Aug-26 21:00N 79°00' E 010°54'6 0.9 340 / 141018.2 3.2 1.7 5.1
2015-Aug-26 14:00N 78°54' E 011°06'1212.0 070 / 21017.7 3.7 2.9 3.9
2015-Aug-26 13:00N 78°48' E 010°12'18 9.2 100 / 81017.8 3.7 2.9 3.5
2015-Aug-26 11:00N 78°30' E 010°30'1313.4 310 / 21018.0 3.8 3.0 3.6
2015-Aug-26 10:00N 78°18' E 011°00'9 9.5 310 / 61018.0 4.1 3.1 5.4
2015-Aug-26 09:00N 78°12' E 011°36'1211.5 260 / 101018.1 4.4 3.6 4.4
2015-Aug-26 08:00N 78°06' E 012°24'1111.1 140 / 41018.2 3.6 2.7 3.5
2015-Aug-26 07:00N 78°06' E 013°18'10 4.9 270 / 21018.5 3.5 2.7 3.5
2015-Aug-26 05:00N 78°06' E 014°06'0 0.0 270 / 141018.7 2.7 2.0 5.4
2015-Aug-26 04:00N 78°06' E 014°06'0 0.0 260 / 121018.7 3.2 2.5 5.4
2015-Aug-26 03:00N 78°06' E 014°06'6 2.1 220 / 41019.2 4.0 3.3 5.1
2015-Aug-26 00:00N 78°06' E 013°36'2 1.2 260 / 101019.3 3.2 2.4 2.8
2015-Aug-25 22:00N 78°06' E 013°24'4 3.7 320 / 101019.6 5.3 3.9 4.8
2015-Aug-25 21:00N 78°06' E 013°06'4 3.7 320 / 101019.7 5.5 4.1 5.9
2015-Aug-25 20:00N 78°06' E 012°48'2 1.2 330 / 81019.8 5.5 4.2 5.5
2015-Aug-25 18:00N 78°06' E 013°00'6 6.1 340 / 81019.7 5.5 3.7 2.9
2015-Aug-25 17:00N 78°00' E 013°06'6 6.0 350 / 81019.8 5.0 3.4 3.0
2015-Aug-25 16:00N 77°54' E 013°06'6 6.1 020 / 101020.0 4.5 3.2 3.1
2015-Aug-25 15:00N 77°48' E 013°12'1212.1 030 / 101019.8 4.3 3.3 2.7
2015-Aug-25 14:00N 77°36' E 013°18'6 6.1 040 / 101019.7 4.3 3.4 2.9
2015-Aug-25 13:00N 77°30' E 013°24'1212.3 090 / 61019.6 3.9 3.3 4.3
2015-Aug-25 12:00N 77°18' E 013°36'1212.3 130 / 41019.5 3.4 2.8 2.4
2015-Aug-25 11:00N 77°06' E 013°48'7 6.6 120 / 81019.0 3.1 2.5 2.3
2015-Aug-25 10:00N 77°00' E 014°00'6 6.0 150 / 81019.0 3.6 3.0 2.6
2015-Aug-25 09:00N 76°54' E 014°00'8 8.2 140 / 61018.8 3.6 3.0 2.5
2015-Aug-25 08:00N 76°54' E 014°36'4 2.0 130 / 41018.8 3.2 2.7 2.3
2015-Aug-25 06:00N 76°54' E 014°54'11 5.6 210 / 41018.8 3.2 2.7 2.5
2015-Aug-25 04:00N 77°00' E 014°12'1312.7 200 / 61019.0 3.4 2.8 2.5
2015-Aug-25 03:00N 77°12' E 013°54'13 6.6 200 / 61019.2 3.6 3.0 2.3
2015-Aug-25 01:00N 77°24' E 013°30'6 6.1 230 / 101019.1 4.0 3.5 4.0
2015-Aug-25 00:00N 77°30' E 013°24'6 6.1 220 / 61019.2 3.8 3.3 2.5
2015-Aug-24 23:00N 77°36' E 013°18'6 6.1 200 / 61019.2 3.7 3.1 2.5
2015-Aug-24 22:00N 77°42' E 013°12'6 6.1 200 / 61019.2 3.5-21.2 3.0
2015-Aug-24 21:00N 77°48' E 013°06'1212.0 200 / 81019.1 3.4 2.9 2.7
2015-Aug-24 20:00N 78°00' E 013°06'5 5.0 210 / 81019.0 3.5 2.7 2.9
2015-Aug-24 19:00N 78°00' E 013°30'1 1.2 220 / 101018.8 3.4 2.6 3.1
2015-Aug-24 18:00N 78°00' E 013°36'17 5.7 230 / 101018.7 3.9 3.1 3.1
2015-Aug-24 15:00N 78°12' E 014°36'   280 / 171017.6 5.5 4.6 5.4
2015-Aug-20 22:00N 78°24' E 014°48'   310 / 141019.7 5.5 1.5 5.8

Dump ship's entire track history